sensor_id;sensor_type;location;lat;lon;timestamp;pressure;altitude;pressure_sealevel;temperature;humidity
78509;BME280;67802;50.846;7.958;2023-03-13T00:00:56;96901.19;;;21.26;26.15
78509;BME280;67802;50.846;7.958;2023-03-13T00:03:21;96903.84;;;21.26;26.29
78509;BME280;67802;50.846;7.958;2023-03-13T00:05:47;96896.09;;;21.24;26.08
78509;BME280;67802;50.846;7.958;2023-03-13T00:08:12;96893.44;;;21.24;26.15
78509;BME280;67802;50.846;7.958;2023-03-13T00:10:39;96886.50;;;21.23;26.21
78509;BME280;67802;50.846;7.958;2023-03-13T00:13:05;96876.94;;;21.22;26.31
78509;BME280;67802;50.846;7.958;2023-03-13T00:15:31;96877.06;;;21.20;26.21
78509;BME280;67802;50.846;7.958;2023-03-13T00:17:56;96864.03;;;21.19;26.21
78509;BME280;67802;50.846;7.958;2023-03-13T00:20:22;96873.63;;;21.20;26.20
78509;BME280;67802;50.846;7.958;2023-03-13T00:22:47;96864.22;;;21.17;26.26
78509;BME280;67802;50.846;7.958;2023-03-13T00:25:12;96849.34;;;21.16;26.28
78509;BME280;67802;50.846;7.958;2023-03-13T00:27:38;96859.06;;;21.16;26.29
78509;BME280;67802;50.846;7.958;2023-03-13T00:30:03;96848.66;;;21.14;26.19
78509;BME280;67802;50.846;7.958;2023-03-13T00:32:29;96841.06;;;21.11;26.28
78509;BME280;67802;50.846;7.958;2023-03-13T00:34:54;96838.44;;;21.11;26.35
78509;BME280;67802;50.846;7.958;2023-03-13T00:37:19;96831.47;;;21.10;26.35
78509;BME280;67802;50.846;7.958;2023-03-13T00:39:45;96830.81;;;21.08;26.33
78509;BME280;67802;50.846;7.958;2023-03-13T00:42:10;96811.66;;;21.06;26.32
78509;BME280;67802;50.846;7.958;2023-03-13T00:44:35;96811.66;;;21.06;26.39
78509;BME280;67802;50.846;7.958;2023-03-13T00:47:01;96814.63;;;21.03;26.36
78509;BME280;67802;50.846;7.958;2023-03-13T00:49:26;96811.97;;;21.03;26.41
78509;BME280;67802;50.846;7.958;2023-03-13T00:51:51;96791.97;;;21.00;26.40
78509;BME280;67802;50.846;7.958;2023-03-13T00:54:17;96781.59;;;20.99;26.38
78509;BME280;67802;50.846;7.958;2023-03-13T00:56:42;96779.09;;;20.97;26.43
78509;BME280;67802;50.846;7.958;2023-03-13T00:59:07;96758.16;;;20.96;26.46
78509;BME280;67802;50.846;7.958;2023-03-13T01:01:34;96758.16;;;20.96;26.51
78509;BME280;67802;50.846;7.958;2023-03-13T01:04:05;96760.13;;;20.94;26.41
78509;BME280;67802;50.846;7.958;2023-03-13T01:06:32;96748.72;;;20.93;26.46
78509;BME280;67802;50.846;7.958;2023-03-13T01:08:59;96748.88;;;20.92;26.84
78509;BME280;67802;50.846;7.958;2023-03-13T01:11:26;96740.97;;;20.92;26.51
78509;BME280;67802;50.846;7.958;2023-03-13T01:13:58;96731.38;;;20.90;26.48
78509;BME280;67802;50.846;7.958;2023-03-13T01:16:24;96733.22;;;20.90;26.55
78509;BME280;67802;50.846;7.958;2023-03-13T01:18:52;96738.50;;;20.90;26.50
78509;BME280;67802;50.846;7.958;2023-03-13T01:21:18;96727.94;;;20.90;26.62
78509;BME280;67802;50.846;7.958;2023-03-13T01:23:45;96728.75;;;20.90;26.51
78509;BME280;67802;50.846;7.958;2023-03-13T01:26:11;96727.94;;;20.90;26.53
78509;BME280;67802;50.846;7.958;2023-03-13T01:28:36;96727.09;;;20.89;26.55
78509;BME280;67802;50.846;7.958;2023-03-13T01:31:19;96722.66;;;20.90;26.50
78509;BME280;67802;50.846;7.958;2023-03-13T01:33:46;96713.75;;;20.91;26.54
78509;BME280;67802;50.846;7.958;2023-03-13T01:36:12;96709.28;;;20.92;26.51
78509;BME280;67802;50.846;7.958;2023-03-13T01:38:38;96702.34;;;20.90;26.43
78509;BME280;67802;50.846;7.958;2023-03-13T01:41:04;96702.22;;;20.92;26.52
78509;BME280;67802;50.846;7.958;2023-03-13T01:43:32;96687.19;;;20.93;26.37
78509;BME280;67802;50.846;7.958;2023-03-13T01:45:59;96691.47;;;20.94;26.45
78509;BME280;67802;50.846;7.958;2023-03-13T01:48:34;96693.13;;;20.95;26.49
78509;BME280;67802;50.846;7.958;2023-03-13T01:51:05;96689.50;;;20.96;26.46
78509;BME280;67802;50.846;7.958;2023-03-13T01:53:34;96677.13;;;20.96;26.57
78509;BME280;67802;50.846;7.958;2023-03-13T01:56:05;96671.69;;;20.98;26.55
78509;BME280;67802;50.846;7.958;2023-03-13T01:58:32;96667.22;;;20.98;26.60
78509;BME280;67802;50.846;7.958;2023-03-13T02:00:59;96652.22;;;20.99;26.54
78509;BME280;67802;50.846;7.958;2023-03-13T02:03:26;96656.53;;;21.00;26.60
78509;BME280;67802;50.846;7.958;2023-03-13T02:05:52;96654.53;;;21.02;26.46
78509;BME280;67802;50.846;7.958;2023-03-13T02:08:51;96664.13;;;21.03;26.47
78509;BME280;67802;50.846;7.958;2023-03-13T02:14:03;96652.41;;;21.05;26.33
78509;BME280;67802;50.846;7.958;2023-03-13T02:16:32;96649.63;;;21.07;26.50
78509;BME280;67802;50.846;7.958;2023-03-13T02:19:00;96638.88;;;21.09;26.45
78509;BME280;67802;50.846;7.958;2023-03-13T02:21:54;96637.88;;;21.10;26.47
78509;BME280;67802;50.846;7.958;2023-03-13T02:24:31;96628.00;;;21.12;26.48
78509;BME280;67802;50.846;7.958;2023-03-13T02:26:57;96621.72;;;21.13;26.50
78509;BME280;67802;50.846;7.958;2023-03-13T02:29:23;96617.28;;;21.13;26.41
78509;BME280;67802;50.846;7.958;2023-03-13T02:31:50;96613.66;;;21.14;26.49
78509;BME280;67802;50.846;7.958;2023-03-13T02:34:19;96595.84;;;21.16;26.44
78509;BME280;67802;50.846;7.958;2023-03-13T02:36:46;96598.28;;;21.18;26.50
78509;BME280;67802;50.846;7.958;2023-03-13T02:39:13;96584.94;;;21.19;26.35
78509;BME280;67802;50.846;7.958;2023-03-13T02:41:41;96571.75;;;21.19;26.30
78509;BME280;67802;50.846;7.958;2023-03-13T02:44:07;96567.09;;;21.22;26.44
78509;BME280;67802;50.846;7.958;2023-03-13T02:46:47;96547.78;;;21.21;26.27
78509;BME280;67802;50.846;7.958;2023-03-13T02:49:32;96552.91;;;21.23;26.42
78509;BME280;67802;50.846;7.958;2023-03-13T02:54:44;96543.19;;;21.23;26.45
78509;BME280;67802;50.846;7.958;2023-03-13T02:57:11;96536.25;;;21.22;26.34
78509;BME280;67802;50.846;7.958;2023-03-13T02:59:36;96533.41;;;21.24;26.35
78509;BME280;67802;50.846;7.958;2023-03-13T03:02:02;96530.78;;;21.24;26.41
78509;BME280;67802;50.846;7.958;2023-03-13T03:04:28;96531.78;;;21.23;26.39
78509;BME280;67802;50.846;7.958;2023-03-13T03:06:54;96531.78;;;21.23;26.40
78509;BME280;67802;50.846;7.958;2023-03-13T03:09:20;96528.47;;;21.20;26.39
78509;BME280;67802;50.846;7.958;2023-03-13T03:11:45;96523.53;;;21.17;26.48
78509;BME280;67802;50.846;7.958;2023-03-13T03:14:11;96514.13;;;21.15;26.53
78509;BME280;67802;50.846;7.958;2023-03-13T03:16:37;96515.28;;;21.12;26.46
78509;BME280;67802;50.846;7.958;2023-03-13T03:19:03;96521.88;;;21.08;26.54
78509;BME280;67802;50.846;7.958;2023-03-13T03:21:28;96526.50;;;21.06;26.79
78509;BME280;67802;50.846;7.958;2023-03-13T03:23:54;96525.19;;;21.02;26.64
78509;BME280;67802;50.846;7.958;2023-03-13T03:26:19;96535.09;;;21.00;26.65
78509;BME280;67802;50.846;7.958;2023-03-13T03:28:45;96515.28;;;20.96;26.69
78509;BME280;67802;50.846;7.958;2023-03-13T03:31:12;96516.28;;;20.95;26.66
78509;BME280;67802;50.846;7.958;2023-03-13T03:33:39;96508.34;;;20.95;26.67
78509;BME280;67802;50.846;7.958;2023-03-13T03:36:07;96507.50;;;20.94;26.76
78509;BME280;67802;50.846;7.958;2023-03-13T03:38:32;96502.22;;;20.94;26.73
78509;BME280;67802;50.846;7.958;2023-03-13T03:40:58;96508.34;;;20.95;26.76
78509;BME280;67802;50.846;7.958;2023-03-13T03:43:24;96503.88;;;20.95;26.73
78509;BME280;67802;50.846;7.958;2023-03-13T03:45:49;96503.06;;;20.95;26.76
78509;BME280;67802;50.846;7.958;2023-03-13T03:48:15;96492.50;;;20.95;26.72
78509;BME280;67802;50.846;7.958;2023-03-13T03:50:40;96481.94;;;20.95;26.66
78509;BME280;67802;50.846;7.958;2023-03-13T03:53:05;96487.22;;;20.95;26.79
78509;BME280;67802;50.846;7.958;2023-03-13T03:55:32;96485.59;;;20.94;26.72
78509;BME280;67802;50.846;7.958;2023-03-13T03:57:57;96477.66;;;20.94;26.90
78509;BME280;67802;50.846;7.958;2023-03-13T04:00:23;96490.88;;;20.94;26.73
78509;BME280;67802;50.846;7.958;2023-03-13T04:02:48;96502.41;;;20.93;26.70
78509;BME280;67802;50.846;7.958;2023-03-13T04:05:13;96491.84;;;20.93;26.92
78509;BME280;67802;50.846;7.958;2023-03-13T04:07:39;96474.53;;;20.90;26.69
78509;BME280;67802;50.846;7.958;2023-03-13T04:10:04;96487.88;;;20.88;26.78
78509;BME280;67802;50.846;7.958;2023-03-13T04:12:30;96491.50;;;20.87;26.92
78509;BME280;67802;50.846;7.958;2023-03-13T04:14:55;96484.59;;;20.86;26.91
78509;BME280;67802;50.846;7.958;2023-03-13T04:17:20;96485.75;;;20.84;27.00
78509;BME280;67802;50.846;7.958;2023-03-13T04:19:46;96483.94;;;20.84;26.70
78509;BME280;67802;50.846;7.958;2023-03-13T04:22:11;96469.91;;;20.84;27.01
78509;BME280;67802;50.846;7.958;2023-03-13T04:24:36;96468.28;;;20.83;26.85
78509;BME280;67802;50.846;7.958;2023-03-13T04:27:02;96454.41;;;20.81;26.80
78509;BME280;67802;50.846;7.958;2023-03-13T04:29:30;96470.25;;;20.81;26.88
78509;BME280;67802;50.846;7.958;2023-03-13T04:31:55;96465.13;;;20.79;26.89
78509;BME280;67802;50.846;7.958;2023-03-13T04:34:21;96450.13;;;20.80;26.90
78509;BME280;67802;50.846;7.958;2023-03-13T04:36:46;96442.03;;;20.81;26.72
78509;BME280;67802;50.846;7.958;2023-03-13T04:39:11;96436.09;;;20.79;26.87
78509;BME280;67802;50.846;7.958;2023-03-13T04:41:37;96436.94;;;20.80;27.07
78509;BME280;67802;50.846;7.958;2023-03-13T04:44:02;96435.94;;;20.81;26.92
78509;BME280;67802;50.846;7.958;2023-03-13T04:46:27;96428.81;;;20.81;26.99
78509;BME280;67802;50.846;7.958;2023-03-13T04:48:53;96437.72;;;20.80;26.87
78509;BME280;67802;50.846;7.958;2023-03-13T04:51:18;96436.75;;;20.81;26.96
78509;BME280;67802;50.846;7.958;2023-03-13T04:53:43;96420.91;;;20.81;26.86
78509;BME280;67802;50.846;7.958;2023-03-13T04:56:10;96404.94;;;20.83;26.91
78509;BME280;67802;50.846;7.958;2023-03-13T04:58:37;96398.66;;;20.84;26.93
78509;BME280;67802;50.846;7.958;2023-03-13T05:01:03;96396.81;;;20.84;26.98
78509;BME280;67802;50.846;7.958;2023-03-13T05:03:28;96398.47;;;20.85;26.87
78509;BME280;67802;50.846;7.958;2023-03-13T05:05:53;96403.75;;;20.85;26.82
78509;BME280;67802;50.846;7.958;2023-03-13T05:08:18;96392.22;;;20.86;26.87
78509;BME280;67802;50.846;7.958;2023-03-13T05:10:44;96403.44;;;20.88;26.89
78509;BME280;67802;50.846;7.958;2023-03-13T05:13:10;96411.34;;;20.88;26.88
78509;BME280;67802;50.846;7.958;2023-03-13T05:15:36;96416.47;;;20.90;26.89
78509;BME280;67802;50.846;7.958;2023-03-13T05:18:01;96411.00;;;20.92;26.88
78509;BME280;67802;50.846;7.958;2023-03-13T05:20:26;96405.72;;;20.92;26.51
78509;BME280;67802;50.846;7.958;2023-03-13T05:22:51;96395.84;;;20.94;26.89
78509;BME280;67802;50.846;7.958;2023-03-13T05:25:17;96397.47;;;20.95;26.91
78509;BME280;67802;50.846;7.958;2023-03-13T05:27:42;96390.22;;;20.97;26.89
78509;BME280;67802;50.846;7.958;2023-03-13T05:30:08;96388.25;;;20.99;26.78
78509;BME280;67802;50.846;7.958;2023-03-13T05:32:33;96383.78;;;20.99;26.64
78509;BME280;67802;50.846;7.958;2023-03-13T05:34:59;96381.78;;;21.01;26.77
78509;BME280;67802;50.846;7.958;2023-03-13T05:37:24;96377.34;;;21.02;26.86
78509;BME280;67802;50.846;7.958;2023-03-13T05:39:49;96366.59;;;21.03;26.73
78509;BME280;67802;50.846;7.958;2023-03-13T05:42:15;96361.97;;;21.05;26.60
78509;BME280;67802;50.846;7.958;2023-03-13T05:44:40;96358.34;;;21.07;26.70
78509;BME280;67802;50.846;7.958;2023-03-13T05:47:05;96355.56;;;21.08;26.84
78509;BME280;67802;50.846;7.958;2023-03-13T05:49:30;96349.28;;;21.09;26.75
78509;BME280;67802;50.846;7.958;2023-03-13T05:51:56;96358.84;;;21.10;26.71
78509;BME280;67802;50.846;7.958;2023-03-13T05:54:21;96355.22;;;21.11;26.75
78509;BME280;67802;50.846;7.958;2023-03-13T05:56:46;96354.03;;;21.14;26.72
78509;BME280;67802;50.846;7.958;2023-03-13T05:59:14;96365.44;;;21.14;26.83
78509;BME280;67802;50.846;7.958;2023-03-13T06:01:39;96360.97;;;21.15;26.71
78509;BME280;67802;50.846;7.958;2023-03-13T06:04:04;96359.19;;;21.15;26.86
78509;BME280;67802;50.846;7.958;2023-03-13T06:06:30;96366.09;;;21.16;26.58
78509;BME280;67802;50.846;7.958;2023-03-13T06:08:55;96358.19;;;21.16;26.59
78509;BME280;67802;50.846;7.958;2023-03-13T06:11:20;96365.09;;;21.17;26.77
78509;BME280;67802;50.846;7.958;2023-03-13T06:13:46;96372.19;;;21.17;26.89
78509;BME280;67802;50.846;7.958;2023-03-13T06:16:11;96371.38;;;21.16;26.57
78509;BME280;67802;50.846;7.958;2023-03-13T06:18:36;96363.47;;;21.16;26.75
78509;BME280;67802;50.846;7.958;2023-03-13T06:21:02;96360.81;;;21.16;26.66
78509;BME280;67802;50.846;7.958;2023-03-13T06:23:27;96368.09;;;21.14;26.71
78509;BME280;67802;50.846;7.958;2023-03-13T06:25:54;96386.56;;;21.14;26.81
78509;BME280;67802;50.846;7.958;2023-03-13T06:28:19;96365.44;;;21.14;26.79
78509;BME280;67802;50.846;7.958;2023-03-13T06:30:45;96354.88;;;21.14;26.84
78509;BME280;67802;50.846;7.958;2023-03-13T06:33:10;96355.88;;;21.13;26.75
78509;BME280;67802;50.846;7.958;2023-03-13T06:35:39;96357.69;;;21.13;26.81
78509;BME280;67802;50.846;7.958;2023-03-13T06:38:04;96361.31;;;21.12;26.80
78509;BME280;67802;50.846;7.958;2023-03-13T06:40:30;96360.50;;;21.11;26.69
78509;BME280;67802;50.846;7.958;2023-03-13T06:42:55;96360.84;;;21.08;26.86
78509;BME280;67802;50.846;7.958;2023-03-13T06:45:20;96366.94;;;21.09;26.74
78509;BME280;67802;50.846;7.958;2023-03-13T06:47:46;96371.41;;;21.08;26.90
78509;BME280;67802;50.846;7.958;2023-03-13T06:50:11;96380.31;;;21.07;26.89
78509;BME280;67802;50.846;7.958;2023-03-13T06:52:37;96377.66;;;21.07;26.78
78509;BME280;67802;50.846;7.958;2023-03-13T06:55:03;96377.00;;;21.05;26.84
78509;BME280;67802;50.846;7.958;2023-03-13T06:57:28;96364.81;;;21.04;26.95
78509;BME280;67802;50.846;7.958;2023-03-13T06:59:53;96357.88;;;21.03;26.85
78509;BME280;67802;50.846;7.958;2023-03-13T07:02:19;96343.84;;;21.02;26.88
78509;BME280;67802;50.846;7.958;2023-03-13T07:04:44;96335.13;;;21.02;26.92
78509;BME280;67802;50.846;7.958;2023-03-13T07:07:10;96328.19;;;21.01;26.76
78509;BME280;67802;50.846;7.958;2023-03-13T07:09:36;96335.44;;;20.99;26.95
78509;BME280;67802;50.846;7.958;2023-03-13T07:12:01;96337.25;;;20.98;26.97
78509;BME280;67802;50.846;7.958;2023-03-13T07:14:27;96337.44;;;20.97;26.98
78509;BME280;67802;50.846;7.958;2023-03-13T07:16:53;96361.19;;;20.97;26.91
78509;BME280;67802;50.846;7.958;2023-03-13T07:19:18;96368.44;;;20.95;26.94
78509;BME280;67802;50.846;7.958;2023-03-13T07:21:43;96385.28;;;20.94;27.03
78509;BME280;67802;50.846;7.958;2023-03-13T07:24:10;96387.91;;;20.94;27.09
78509;BME280;67802;50.846;7.958;2023-03-13T07:26:36;96381.78;;;20.93;27.12
78509;BME280;67802;50.846;7.958;2023-03-13T07:29:01;96384.63;;;20.92;26.97
78509;BME280;67802;50.846;7.958;2023-03-13T07:31:28;96389.91;;;20.92;27.10
78509;BME280;67802;50.846;7.958;2023-03-13T07:33:57;96385.59;;;20.90;27.27
78509;BME280;67802;50.846;7.958;2023-03-13T07:36:23;96385.59;;;20.90;27.05
78509;BME280;67802;50.846;7.958;2023-03-13T07:38:48;96382.97;;;20.90;27.04
78509;BME280;67802;50.846;7.958;2023-03-13T07:41:14;96387.25;;;20.92;27.05
78509;BME280;67802;50.846;7.958;2023-03-13T07:43:40;96385.59;;;20.90;26.86
78509;BME280;67802;50.846;7.958;2023-03-13T07:46:09;96388.25;;;20.90;27.05
78509;BME280;67802;50.846;7.958;2023-03-13T07:48:37;96381.16;;;20.91;27.15
78509;BME280;67802;50.846;7.958;2023-03-13T07:51:04;96381.97;;;20.92;27.06
78509;BME280;67802;50.846;7.958;2023-03-13T07:53:30;96376.69;;;20.92;27.04
78509;BME280;67802;50.846;7.958;2023-03-13T07:56:04;96384.44;;;20.93;27.15
78509;BME280;67802;50.846;7.958;2023-03-13T07:58:32;96383.63;;;20.93;27.05
78509;BME280;67802;50.846;7.958;2023-03-13T08:00:58;96392.19;;;20.95;27.05
78509;BME280;67802;50.846;7.958;2023-03-13T08:03:24;96396.66;;;20.94;27.11
78509;BME280;67802;50.846;7.958;2023-03-13T08:06:12;96393.84;;;20.96;27.06
78509;BME280;67802;50.846;7.958;2023-03-13T08:08:38;96401.59;;;20.97;27.08
78509;BME280;67802;50.846;7.958;2023-03-13T08:11:10;96397.97;;;20.98;27.12
78509;BME280;67802;50.846;7.958;2023-03-13T08:13:36;96393.53;;;20.99;27.00
78509;BME280;67802;50.846;7.958;2023-03-13T08:18:38;96395.00;;;21.01;27.01
78509;BME280;67802;50.846;7.958;2023-03-13T08:21:09;96390.56;;;21.02;27.06
78509;BME280;67802;50.846;7.958;2023-03-13T08:23:34;96381.47;;;21.04;27.05
78509;BME280;67802;50.846;7.958;2023-03-13T08:26:08;96368.09;;;21.06;26.96
78509;BME280;67802;50.846;7.958;2023-03-13T08:28:34;96359.19;;;21.07;27.11
78509;BME280;67802;50.846;7.958;2023-03-13T08:31:15;96349.28;;;21.09;26.69
78509;BME280;67802;50.846;7.958;2023-03-13T08:33:45;96349.94;;;21.11;26.96
78509;BME280;67802;50.846;7.958;2023-03-13T08:36:17;96354.03;;;21.14;26.92
78509;BME280;67802;50.846;7.958;2023-03-13T08:38:44;96342.34;;;21.16;26.86
78509;BME280;67802;50.846;7.958;2023-03-13T08:41:11;96335.06;;;21.18;26.94
78509;BME280;67802;50.846;7.958;2023-03-13T08:43:36;96323.53;;;21.19;26.82
78509;BME280;67802;50.846;7.958;2023-03-13T08:46:02;96326.78;;;21.22;26.93
78509;BME280;67802;50.846;7.958;2023-03-13T08:48:28;96326.78;;;21.22;26.93
78509;BME280;67802;50.846;7.958;2023-03-13T08:51:08;96322.16;;;21.24;26.91
78509;BME280;67802;50.846;7.958;2023-03-13T08:53:35;96323.00;;;21.24;26.90
78509;BME280;67802;50.846;7.958;2023-03-13T08:56:01;96309.78;;;21.24;26.88
78509;BME280;67802;50.846;7.958;2023-03-13T08:58:27;96323.81;;;21.25;26.84
78509;BME280;67802;50.846;7.958;2023-03-13T09:01:00;96319.34;;;21.25;26.93
78509;BME280;67802;50.846;7.958;2023-03-13T09:03:26;96327.44;;;21.24;26.94
78509;BME280;67802;50.846;7.958;2023-03-13T09:05:51;96323.81;;;21.25;26.99
78509;BME280;67802;50.846;7.958;2023-03-13T09:08:16;96329.09;;;21.25;26.97
78509;BME280;67802;50.846;7.958;2023-03-13T09:10:41;96316.06;;;21.23;26.92
78509;BME280;67802;50.846;7.958;2023-03-13T09:13:07;96322.16;;;21.24;27.01
78509;BME280;67802;50.846;7.958;2023-03-13T09:15:32;96314.22;;;21.24;26.87
78509;BME280;67802;50.846;7.958;2023-03-13T09:17:57;96316.22;;;21.22;26.87
78509;BME280;67802;50.846;7.958;2023-03-13T09:20:23;96315.22;;;21.23;26.62
78509;BME280;67802;50.846;7.958;2023-03-13T09:22:48;96310.13;;;21.21;26.96
78509;BME280;67802;50.846;7.958;2023-03-13T09:25:14;96316.22;;;21.22;26.96
78509;BME280;67802;50.846;7.958;2023-03-13T09:27:39;96311.13;;;21.20;27.02
78509;BME280;67802;50.846;7.958;2023-03-13T09:30:06;96301.38;;;21.20;26.96
78509;BME280;67802;50.846;7.958;2023-03-13T09:32:31;96300.56;;;21.20;26.96
78509;BME280;67802;50.846;7.958;2023-03-13T09:34:56;96294.47;;;21.19;27.08
78509;BME280;67802;50.846;7.958;2023-03-13T09:37:22;96302.53;;;21.18;26.92
78509;BME280;67802;50.846;7.958;2023-03-13T09:39:48;96304.19;;;21.19;27.07
78509;BME280;67802;50.846;7.958;2023-03-13T09:42:16;96296.47;;;21.17;27.29
78509;BME280;67802;50.846;7.958;2023-03-13T09:45:05;96306.38;;;21.07;27.60
78509;BME280;67802;50.846;7.958;2023-03-13T09:47:41;96301.44;;;21.04;27.55
78509;BME280;67802;50.846;7.958;2023-03-13T09:50:14;96304.75;;;21.06;27.59
78509;BME280;67802;50.846;7.958;2023-03-13T09:52:41;96301.75;;;21.09;27.60
78509;BME280;67802;50.846;7.958;2023-03-13T10:00:24;96297.25;;;21.18;27.61
78509;BME280;67802;50.846;7.958;2023-03-13T10:05:27;96318.25;;;21.19;27.41
78509;BME280;67802;50.846;7.958;2023-03-13T10:11:23;96318.84;;;21.22;27.81
78509;BME280;67802;50.846;7.958;2023-03-13T10:13:45;96328.44;;;21.23;27.76
78509;BME280;67802;50.846;7.958;2023-03-13T10:16:33;96320.50;;;21.23;27.77
78509;BME280;67802;50.846;7.958;2023-03-13T10:19:11;96325.78;;;21.23;27.84
78509;BME280;67802;50.846;7.958;2023-03-13T10:21:39;96321.34;;;21.23;27.85
78509;BME280;67802;50.846;7.958;2023-03-13T10:24:13;96316.06;;;21.23;27.82
78509;BME280;67802;50.846;7.958;2023-03-13T10:26:40;96322.16;;;21.24;27.90
78509;BME280;67802;50.846;7.958;2023-03-13T10:29:26;96307.16;;;21.24;27.83
78509;BME280;67802;50.846;7.958;2023-03-13T10:32:00;96312.44;;;21.24;27.91
78509;BME280;67802;50.846;7.958;2023-03-13T10:34:28;96314.06;;;21.25;27.81
78509;BME280;67802;50.846;7.958;2023-03-13T10:36:58;96311.25;;;21.27;27.84
78509;BME280;67802;50.846;7.958;2023-03-13T10:39:26;96312.91;;;21.28;27.86
78509;BME280;67802;50.846;7.958;2023-03-13T10:41:57;96299.69;;;21.28;27.86
78509;BME280;67802;50.846;7.958;2023-03-13T10:44:30;96304.66;;;21.23;27.98
78509;BME280;67802;50.846;7.958;2023-03-13T10:46:59;96309.00;;;21.15;28.04
78509;BME280;67802;50.846;7.958;2023-03-13T10:49:26;96302.41;;;21.11;28.01
78509;BME280;67802;50.846;7.958;2023-03-13T10:54:25;96306.72;;;21.04;28.23
78509;BME280;67802;50.846;7.958;2023-03-13T10:56:52;96297.50;;;21.00;
78509;BME280;67802;50.846;7.958;2023-03-13T10:59:38;96282.31;;;21.02;28.45
78509;BME280;67802;50.846;7.958;2023-03-13T11:04:44;96279.31;;;21.13;28.44
78509;BME280;67802;50.846;7.958;2023-03-13T11:07:20;96275.81;;;21.21;28.40
78509;BME280;67802;50.846;7.958;2023-03-13T11:10:21;96261.25;;;21.25;28.29
78509;BME280;67802;50.846;7.958;2023-03-13T11:12:48;96268.66;;;21.30;28.52
78509;BME280;67802;50.846;7.958;2023-03-13T11:15:18;96264.69;;;21.34;28.29
78509;BME280;67802;50.846;7.958;2023-03-13T11:20:32;96264.00;;;21.40;28.49
78509;BME280;67802;50.846;7.958;2023-03-13T11:26:12;96250.09;;;21.46;28.41
78509;BME280;67802;50.846;7.958;2023-03-13T11:29:12;96252.38;;;21.49;28.32
78509;BME280;67802;50.846;7.958;2023-03-13T11:31:47;96240.81;;;21.50;28.30
78509;BME280;67802;50.846;7.958;2023-03-13T11:34:38;96243.94;;;21.54;28.37
78509;BME280;67802;50.846;7.958;2023-03-13T11:37:09;96245.56;;;21.55;28.19
78509;BME280;67802;50.846;7.958;2023-03-13T11:42:49;96246.06;;;21.59;28.10
78509;BME280;67802;50.846;7.958;2023-03-13T11:51:52;96214.84;;;21.62;27.96
78509;BME280;67802;50.846;7.958;2023-03-13T11:57:24;96212.84;;;21.64;27.73
78509;BME280;67802;50.846;7.958;2023-03-13T12:02:43;96201.13;;;21.67;27.63
78509;BME280;67802;50.846;7.958;2023-03-13T12:05:14;96185.25;;;21.67;27.73
78509;BME280;67802;50.846;7.958;2023-03-13T12:07:48;96190.56;;;21.67;27.70
78509;BME280;67802;50.846;7.958;2023-03-13T12:10:18;96182.63;;;21.67;27.74
78509;BME280;67802;50.846;7.958;2023-03-13T12:13:04;96183.63;;;21.66;27.50
78509;BME280;67802;50.846;7.958;2023-03-13T12:15:36;96168.75;;;21.65;27.67
78509;BME280;67802;50.846;7.958;2023-03-13T12:18:08;96181.97;;;21.65;27.67
78509;BME280;67802;50.846;7.958;2023-03-13T12:21:00;96162.84;;;21.63;27.83
78509;BME280;67802;50.846;7.958;2023-03-13T12:26:10;96168.13;;;21.63;27.42
78509;BME280;67802;50.846;7.958;2023-03-13T12:28:51;96175.88;;;21.56;27.77
78509;BME280;67802;50.846;7.958;2023-03-13T12:31:35;96158.56;;;21.54;27.82
78509;BME280;67802;50.846;7.958;2023-03-13T12:34:17;96160.03;;;21.56;27.94
78509;BME280;67802;50.846;7.958;2023-03-13T12:36:54;96156.22;;;21.59;27.81
78509;BME280;67802;50.846;7.958;2023-03-13T12:39:41;96145.34;;;21.62;27.83
78509;BME280;67802;50.846;7.958;2023-03-13T12:45:05;96149.47;;;21.56;28.30
78509;BME280;67802;50.846;7.958;2023-03-13T12:47:33;96147.66;;;21.57;28.16
78509;BME280;67802;50.846;7.958;2023-03-13T12:55:52;96134.06;;;21.45;27.94
78509;BME280;67802;50.846;7.958;2023-03-13T13:00:50;96141.09;;;21.29;28.42
78509;BME280;67802;50.846;7.958;2023-03-13T13:03:28;96135.09;;;21.35;28.22
78509;BME280;67802;50.846;7.958;2023-03-13T13:08:38;96122.19;;;21.41;28.37
78509;BME280;67802;50.846;7.958;2023-03-13T13:14:34;96115.72;;;21.43;28.28
78509;BME280;67802;50.846;7.958;2023-03-13T13:16:56;96105.00;;;21.45;28.31
78509;BME280;67802;50.846;7.958;2023-03-13T13:29:54;96083.09;;;21.36;28.57
78509;BME280;67802;50.846;7.958;2023-03-13T13:32:32;96072.88;;;21.33;28.47
78509;BME280;67802;50.846;7.958;2023-03-13T13:35:18;96069.22;;;21.34;28.55
78509;BME280;67802;50.846;7.958;2023-03-13T13:37:45;96062.78;;;21.37;28.49
78509;BME280;67802;50.846;7.958;2023-03-13T13:42:55;96056.31;;;21.39;28.65
78509;BME280;67802;50.846;7.958;2023-03-13T13:45:27;96048.22;;;21.41;28.58
78509;BME280;67802;50.846;7.958;2023-03-13T13:53:46;96019.97;;;21.41;28.64
78509;BME280;67802;50.846;7.958;2023-03-13T13:56:47;96032.03;;;21.44;28.57
78509;BME280;67802;50.846;7.958;2023-03-13T14:04:37;96001.06;;;21.53;28.50
78509;BME280;67802;50.846;7.958;2023-03-13T14:07:06;95988.31;;;21.56;28.52
78509;BME280;67802;50.846;7.958;2023-03-13T14:12:27;95970.09;;;21.61;28.32
78509;BME280;67802;50.846;7.958;2023-03-13T14:15:12;95966.94;;;21.66;28.39
78509;BME280;67802;50.846;7.958;2023-03-13T14:17:44;95974.31;;;21.71;28.27
78509;BME280;67802;50.846;7.958;2023-03-13T14:20:21;95959.09;;;21.73;28.02
78509;BME280;67802;50.846;7.958;2023-03-13T14:22:49;95959.75;;;21.75;28.30
78509;BME280;67802;50.846;7.958;2023-03-13T14:25:14;95965.66;;;21.77;28.23
78509;BME280;67802;50.846;7.958;2023-03-13T14:27:44;95963.81;;;21.77;28.18
78509;BME280;67802;50.846;7.958;2023-03-13T14:30:10;95961.00;;;21.79;28.36
78509;BME280;67802;50.846;7.958;2023-03-13T14:32:36;95969.75;;;21.79;28.42
78509;BME280;67802;50.846;7.958;2023-03-13T14:35:04;95959.19;;;21.79;28.41
78509;BME280;67802;50.846;7.958;2023-03-13T14:37:40;95940.88;;;21.78;28.50
78509;BME280;67802;50.846;7.958;2023-03-13T14:40:26;95939.03;;;21.78;28.51